createdAt,value
2018-10-17T00:00:54.858Z,11.26
2018-10-17T00:01:55.070Z,11.14
2018-10-17T00:02:55.293Z,11.22
2018-10-17T00:03:55.521Z,10.97
2018-10-17T00:04:55.755Z,10.96
2018-10-17T00:05:55.974Z,11.00
2018-10-17T00:06:56.246Z,10.87
2018-10-17T00:07:56.424Z,10.94
2018-10-17T00:08:56.647Z,10.84
2018-10-17T00:09:56.872Z,10.74
2018-10-17T00:10:57.108Z,10.74
2018-10-17T00:11:57.321Z,10.67
2018-10-17T00:12:57.554Z,10.57
2018-10-17T00:13:57.770Z,10.68
2018-10-17T00:14:58.000Z,10.57
2018-10-17T00:15:58.227Z,10.64
2018-10-17T00:16:58.499Z,10.61
2018-10-17T00:17:58.675Z,10.64
2018-10-17T00:18:58.916Z,10.69
2018-10-17T00:19:59.125Z,10.71
2018-10-17T00:20:59.356Z,10.78
2018-10-17T00:21:59.575Z,10.76
2018-10-17T00:22:59.857Z,10.78
2018-10-17T00:24:00.037Z,10.86
2018-10-17T00:25:00.275Z,10.75
2018-10-17T00:26:00.477Z,10.79
2018-10-17T00:27:00.705Z,10.68
2018-10-17T00:28:00.928Z,10.71
2018-10-17T00:29:01.170Z,10.74
2018-10-17T00:30:01.385Z,10.92
2018-10-17T00:31:01.636Z,10.84
2018-10-17T00:32:01.831Z,10.79
2018-10-17T00:33:02.057Z,10.84
2018-10-17T00:34:02.286Z,10.79
2018-10-17T00:35:02.553Z,10.87
2018-10-17T00:36:02.735Z,10.76
2018-10-17T00:37:03.036Z,10.86
2018-10-17T00:38:03.189Z,10.78
2018-10-17T00:39:03.415Z,10.81
2018-10-17T00:40:03.641Z,10.74
2018-10-17T00:41:03.937Z,10.67
2018-10-17T00:42:04.094Z,10.63
2018-10-17T00:43:04.338Z,10.72
2018-10-17T00:44:04.547Z,10.61
2018-10-17T00:45:04.768Z,10.60
2018-10-17T00:46:04.995Z,10.51
2018-10-17T00:47:05.263Z,10.54
2018-10-17T00:48:05.444Z,10.60
2018-10-17T00:49:05.713Z,10.68
2018-10-17T00:50:05.898Z,10.63
2018-10-17T00:51:06.123Z,10.68
2018-10-17T00:52:06.347Z,10.63
2018-10-17T00:53:06.663Z,10.71
2018-10-17T00:54:06.803Z,10.69
2018-10-17T00:55:07.082Z,10.72
2018-10-17T00:56:07.250Z,10.84
2018-10-17T00:57:07.478Z,10.89
2018-10-17T00:58:07.703Z,10.79
2018-10-17T00:59:07.961Z,10.71
2018-10-17T01:00:08.153Z,10.75
2018-10-17T01:01:08.445Z,10.81
2018-10-17T01:02:08.626Z,10.96
2018-10-17T01:03:08.829Z,10.99
2018-10-17T01:04:09.056Z,10.90
2018-10-17T01:05:09.318Z,10.99
2018-10-17T01:06:09.494Z,10.96
2018-10-17T01:07:09.784Z,10.92
2018-10-17T01:08:09.949Z,10.96
2018-10-17T01:09:10.172Z,10.99
2018-10-17T01:10:10.398Z,11.25
2018-10-17T01:11:10.629Z,11.18
2018-10-17T01:12:10.851Z,11.19
2018-10-17T01:13:11.166Z,11.14
2018-10-17T01:14:11.300Z,11.05
2018-10-17T01:15:11.526Z,11.11
2018-10-17T01:16:11.751Z,11.07
2018-10-17T01:17:12.070Z,11.15
2018-10-17T01:18:12.203Z,11.15
2018-10-17T01:19:12.482Z,11.36
2018-10-17T01:20:12.657Z,11.35
2018-10-17T01:21:12.883Z,11.32
2018-10-17T01:22:13.116Z,11.37
2018-10-17T01:23:13.355Z,11.41
2018-10-17T01:24:13.558Z,11.35
2018-10-17T01:25:13.816Z,11.33
2018-10-17T01:26:14.010Z,11.48
2018-10-17T01:27:14.244Z,11.36
2018-10-17T01:28:14.460Z,11.36
2018-10-17T01:29:14.801Z,11.41
2018-10-17T01:30:14.911Z,11.47
2018-10-17T01:31:15.221Z,11.52
2018-10-17T01:32:15.365Z,11.44
2018-10-17T01:33:15.587Z,11.35
2018-10-17T01:34:15.814Z,11.32
2018-10-17T01:35:16.039Z,11.11
2018-10-17T01:36:16.278Z,11.15
2018-10-17T01:37:16.570Z,11.14
2018-10-17T01:38:16.729Z,11.05
2018-10-17T01:39:16.957Z,11.12
2018-10-17T01:40:17.196Z,11.22
2018-10-17T01:41:17.476Z,11.25
2018-10-17T01:42:17.636Z,11.32
2018-10-17T01:43:17.912Z,11.37
2018-10-17T01:44:18.090Z,11.10
2018-10-17T01:45:18.316Z,11.04
2018-10-17T01:46:18.544Z,10.94
2018-10-17T01:47:18.766Z,10.76
2018-10-17T01:48:18.991Z,10.67
2018-10-17T01:49:19.217Z,10.69
2018-10-17T01:50:19.445Z,10.57
2018-10-17T01:51:19.668Z,10.64
2018-10-17T01:52:19.894Z,10.60
2018-10-17T01:53:20.120Z,10.63
2018-10-17T01:54:20.343Z,10.71
2018-10-17T01:55:20.572Z,10.72
2018-10-17T01:56:20.796Z,10.72
2018-10-17T01:57:21.024Z,10.64
2018-10-17T01:58:21.250Z,10.60
2018-10-17T01:59:21.477Z,10.78
2018-10-17T02:00:21.701Z,10.72
2018-10-17T02:01:21.927Z,10.69
2018-10-17T02:02:22.155Z,10.68
2018-10-17T02:03:22.382Z,10.64
2018-10-17T02:04:22.604Z,10.72
2018-10-17T02:05:22.831Z,10.63
2018-10-17T02:06:23.062Z,10.64
2018-10-17T02:07:23.285Z,10.53
2018-10-17T02:08:23.510Z,10.61
2018-10-17T02:09:23.733Z,10.67
2018-10-17T02:10:23.962Z,10.53
2018-10-17T02:11:24.188Z,10.49
2018-10-17T02:12:24.412Z,10.59
2018-10-17T02:13:24.636Z,10.60
2018-10-17T02:14:24.863Z,10.57
2018-10-17T02:15:25.091Z,10.64
2018-10-17T02:16:25.323Z,10.56
2018-10-17T02:17:25.543Z,10.63
2018-10-17T02:18:25.767Z,10.59
2018-10-17T02:19:25.992Z,10.53
2018-10-17T02:20:26.221Z,10.69
2018-10-17T02:21:26.444Z,10.56
2018-10-17T02:22:26.667Z,10.63
2018-10-17T02:23:26.893Z,10.68
2018-10-17T02:24:27.119Z,10.71
2018-10-17T02:25:27.348Z,10.67
2018-10-17T02:26:27.571Z,10.74
2018-10-17T02:27:27.799Z,10.82
2018-10-17T02:28:28.020Z,10.82
2018-10-17T02:29:28.251Z,10.79
2018-10-17T02:30:28.476Z,10.87
2018-10-17T02:31:28.702Z,10.86
2018-10-17T02:32:28.928Z,10.81
2018-10-17T02:33:29.154Z,10.74
2018-10-17T02:34:29.380Z,10.63
2018-10-17T02:35:29.602Z,10.60
2018-10-17T02:36:29.828Z,10.64
2018-10-17T02:37:30.054Z,10.57
2018-10-17T02:38:30.281Z,10.54
2018-10-17T02:39:30.560Z,10.56
2018-10-17T02:40:30.736Z,10.60
2018-10-17T02:41:30.966Z,10.59
2018-10-17T02:42:31.186Z,10.61
2018-10-17T02:43:31.411Z,10.57
2018-10-17T02:44:31.639Z,10.56
2018-10-17T02:45:31.863Z,10.60
2018-10-17T02:46:32.090Z,10.44
2018-10-17T02:47:32.317Z,10.37
2018-10-17T02:48:32.542Z,10.51
2018-10-17T02:49:32.769Z,10.60
2018-10-17T02:50:32.997Z,10.63
2018-10-17T02:51:33.225Z,10.59
2018-10-17T02:52:33.448Z,10.53
2018-10-17T02:53:33.675Z,10.40
2018-10-17T02:54:33.899Z,10.48
2018-10-17T02:55:34.127Z,10.30
2018-10-17T02:56:34.350Z,10.33
2018-10-17T02:57:34.580Z,10.31
2018-10-17T02:58:34.802Z,10.33
2018-10-17T02:59:35.030Z,10.31
2018-10-17T03:00:35.256Z,10.28
2018-10-17T03:01:35.486Z,10.17
2018-10-17T03:02:35.706Z,10.33
2018-10-17T03:03:35.949Z,10.35
2018-10-17T03:04:36.175Z,10.40
2018-10-17T03:05:36.403Z,10.41
2018-10-17T03:06:36.628Z,10.49
2018-10-17T03:07:36.854Z,10.67
2018-10-17T03:08:37.082Z,10.53
2018-10-17T03:09:37.306Z,10.72
2018-10-17T03:10:37.531Z,10.60
2018-10-17T03:11:37.755Z,10.40
2018-10-17T03:12:37.986Z,10.46
2018-10-17T03:13:38.207Z,10.30
2018-10-17T03:14:38.431Z,10.25
2018-10-17T03:15:38.662Z,10.30
2018-10-17T03:16:38.886Z,10.30
2018-10-17T03:17:39.111Z,10.20
2018-10-17T03:18:39.338Z,10.35
2018-10-17T03:19:39.561Z,10.38
2018-10-17T03:20:39.786Z,10.53
2018-10-17T03:21:40.013Z,10.56
2018-10-17T03:22:40.240Z,10.46
2018-10-17T03:23:40.467Z,10.46
2018-10-17T03:24:40.693Z,10.59
2018-10-17T03:25:40.941Z,10.56
2018-10-17T03:26:41.145Z,10.57
2018-10-17T03:27:41.411Z,10.67
2018-10-17T03:28:41.597Z,10.68
2018-10-17T03:29:41.824Z,10.49
2018-10-17T03:30:42.052Z,10.48
2018-10-17T03:31:42.280Z,10.44
2018-10-17T03:32:42.579Z,10.54
2018-10-17T03:33:42.731Z,10.53
2018-10-17T03:34:42.955Z,10.71
2018-10-17T03:35:43.215Z,10.61
2018-10-17T03:36:43.406Z,10.75
2018-10-17T03:37:43.634Z,10.81
2018-10-17T03:38:43.859Z,10.82
2018-10-17T03:39:44.085Z,10.74
2018-10-17T03:40:44.312Z,10.86
2018-10-17T03:41:44.537Z,10.93
2018-10-17T03:42:44.763Z,10.94
2018-10-17T03:43:44.990Z,10.87
2018-10-17T03:44:45.216Z,10.79
2018-10-17T03:45:45.442Z,10.81
2018-10-17T03:46:45.668Z,10.72
2018-10-17T03:47:45.895Z,10.86
2018-10-17T03:48:46.120Z,10.84
2018-10-17T03:49:46.406Z,10.89
2018-10-17T03:50:46.570Z,10.86
2018-10-17T03:51:46.799Z,10.76
2018-10-17T03:52:47.027Z,10.69
2018-10-17T03:53:47.254Z,10.74
2018-10-17T03:54:47.484Z,10.75
2018-10-17T03:55:47.707Z,10.69
2018-10-17T03:56:47.936Z,10.72
2018-10-17T03:57:48.158Z,10.79
2018-10-17T03:58:48.382Z,10.68
2018-10-17T03:59:48.714Z,10.46
2018-10-17T04:00:48.839Z,10.42
2018-10-17T04:01:49.064Z,10.48
2018-10-17T04:02:49.298Z,10.56
2018-10-17T04:03:49.523Z,10.42
2018-10-17T04:04:49.746Z,10.44
2018-10-17T04:05:49.969Z,10.46
2018-10-17T04:06:50.198Z,10.42
2018-10-17T04:07:50.424Z,10.30
2018-10-17T04:08:50.649Z,10.26
2018-10-17T04:09:50.876Z,10.25
2018-10-17T04:10:51.102Z,10.20
2018-10-17T04:11:51.327Z,10.16
2018-10-17T04:12:51.606Z,10.13
2018-10-17T04:13:51.783Z,10.10
2018-10-17T04:14:52.008Z,10.33
2018-10-17T04:15:52.235Z,10.28
2018-10-17T04:16:52.517Z,10.26
2018-10-17T04:17:52.684Z,10.04
2018-10-17T04:18:52.960Z,10.04
2018-10-17T04:19:53.137Z,10.05
2018-10-17T04:20:53.365Z,10.16
2018-10-17T04:21:53.591Z,10.13
2018-10-17T04:22:53.855Z,10.09
2018-10-17T04:23:54.041Z,10.30
2018-10-17T04:24:54.310Z,10.28
2018-10-17T04:25:54.490Z,10.25
2018-10-17T04:26:54.718Z,10.17
2018-10-17T04:27:54.941Z,10.13
2018-10-17T04:28:55.196Z,9.99
2018-10-17T04:29:55.394Z,10.05
2018-10-17T04:30:55.661Z,10.10
2018-10-17T04:31:55.848Z,10.16
2018-10-17T04:32:56.074Z,10.16
2018-10-17T04:33:56.298Z,10.16
2018-10-17T04:34:56.555Z,10.10
2018-10-17T04:35:56.787Z,10.07
2018-10-17T04:36:57.023Z,10.10
2018-10-17T04:37:57.221Z,10.13
2018-10-17T04:38:57.434Z,9.99
2018-10-17T04:39:57.661Z,10.02
2018-10-17T04:40:57.932Z,10.02
2018-10-17T04:41:58.115Z,10.07
2018-10-17T04:42:58.358Z,10.04
2018-10-17T04:43:58.569Z,10.09
2018-10-17T04:44:58.795Z,9.99
2018-10-17T04:45:59.022Z,9.92
2018-10-17T04:46:59.262Z,9.95
2018-10-17T04:47:59.474Z,9.91
2018-10-17T04:48:59.736Z,9.76
2018-10-17T04:49:59.927Z,9.92
2018-10-17T04:51:00.154Z,10.01
2018-10-17T04:52:00.383Z,9.82
2018-10-17T04:53:00.631Z,9.73
2018-10-17T04:54:00.850Z,9.89
2018-10-17T04:55:01.152Z,9.80
2018-10-17T04:56:01.305Z,9.80
2018-10-17T04:57:01.530Z,9.82
2018-10-17T04:58:01.757Z,9.80
2018-10-17T04:59:02.059Z,9.82
2018-10-17T05:00:02.216Z,9.76
2018-10-17T05:01:02.475Z,9.79
2018-10-17T05:02:02.662Z,9.82
2018-10-17T05:03:02.891Z,9.86
2018-10-17T05:04:03.117Z,9.89
2018-10-17T05:05:03.437Z,9.86
2018-10-17T05:06:03.569Z,9.95
2018-10-17T05:07:03.812Z,9.86
2018-10-17T05:08:04.021Z,9.72
2018-10-17T05:09:04.252Z,9.92
2018-10-17T05:10:04.476Z,10.10
2018-10-17T05:11:04.768Z,9.83
2018-10-17T05:12:04.929Z,9.84
2018-10-17T05:13:05.193Z,9.89
2018-10-17T05:14:05.381Z,9.89
2018-10-17T05:15:05.621Z,9.89
2018-10-17T05:16:05.835Z,10.02
2018-10-17T05:17:06.068Z,10.04
2018-10-17T05:18:06.285Z,10.15
2018-10-17T05:19:06.537Z,10.07
2018-10-17T05:20:06.737Z,10.15
2018-10-17T05:21:06.972Z,10.07
2018-10-17T05:22:07.192Z,10.19
2018-10-17T05:23:10.476Z,10.09
2018-10-17T05:24:07.618Z,10.02
2018-10-17T05:25:07.928Z,10.01
2018-10-17T05:26:08.072Z,10.17
2018-10-17T05:27:08.302Z,10.04
2018-10-17T05:28:08.527Z,10.13
2018-10-17T05:29:08.813Z,10.12
2018-10-17T05:30:08.976Z,10.01
2018-10-17T05:31:09.236Z,10.16
2018-10-17T05:32:09.428Z,10.33
2018-10-17T05:33:09.656Z,10.19
2018-10-17T05:34:09.882Z,10.33
2018-10-17T05:35:10.131Z,10.22
2018-10-17T05:36:10.334Z,10.16
2018-10-17T05:37:10.696Z,10.15
2018-10-17T05:38:10.827Z,10.22
2018-10-17T05:39:11.010Z,10.23
2018-10-17T05:40:11.239Z,10.33
2018-10-17T05:41:11.542Z,10.33
2018-10-17T05:42:11.690Z,10.46
2018-10-17T05:43:12.103Z,10.37
2018-10-17T05:44:12.190Z,10.34
2018-10-17T05:45:12.367Z,10.40
2018-10-17T05:46:12.599Z,10.46
2018-10-17T05:47:12.900Z,10.41
2018-10-17T05:48:13.049Z,10.42
2018-10-17T05:49:13.327Z,10.44
2018-10-17T05:50:13.505Z,10.37
2018-10-17T05:51:13.727Z,10.40
2018-10-17T05:52:13.953Z,10.33
2018-10-17T05:53:14.228Z,10.38
2018-10-17T05:54:14.407Z,10.34
2018-10-17T05:55:14.714Z,10.38
2018-10-17T05:56:14.861Z,10.30
2018-10-17T05:57:15.086Z,10.35
2018-10-17T05:58:15.311Z,10.38
2018-10-17T05:59:15.557Z,10.30
2018-10-17T06:00:15.765Z,10.26
2018-10-17T06:01:16.051Z,10.34
2018-10-17T06:02:16.315Z,10.16
2018-10-17T06:03:16.444Z,10.05
2018-10-17T06:04:16.670Z,10.04
2018-10-17T06:05:16.914Z,10.04
2018-10-17T06:06:17.120Z,10.07
2018-10-17T06:07:17.346Z,10.16
2018-10-17T06:08:17.571Z,9.99
2018-10-17T06:09:17.800Z,9.95
2018-10-17T06:10:18.125Z,10.04
2018-10-17T06:11:18.251Z,9.95
2018-10-17T06:12:18.503Z,9.94
2018-10-17T06:13:18.706Z,9.87
2018-10-17T06:14:18.929Z,9.84
2018-10-17T06:15:19.157Z,10.01
2018-10-17T06:16:19.387Z,9.92
2018-10-17T06:17:19.753Z,9.97
2018-10-17T06:18:19.843Z,10.09
2018-10-17T06:19:20.066Z,9.89
2018-10-17T06:20:20.290Z,10.09
2018-10-17T06:21:20.515Z,10.05
2018-10-17T06:22:20.744Z,9.98
2018-10-17T06:23:20.971Z,9.91
2018-10-17T06:24:21.196Z,9.86
2018-10-17T06:25:21.424Z,9.99
2018-10-17T06:26:21.648Z,10.01
2018-10-17T06:27:21.875Z,9.92
2018-10-17T06:28:22.164Z,9.94
2018-10-17T06:29:22.326Z,9.97
2018-10-17T06:30:22.555Z,9.98
2018-10-17T06:31:22.780Z,10.02
2018-10-17T06:32:23.007Z,10.13
2018-10-17T06:33:23.262Z,10.07
2018-10-17T06:34:23.512Z,9.95
2018-10-17T06:35:23.677Z,10.07
2018-10-17T06:36:23.903Z,10.16
2018-10-17T06:37:24.129Z,10.10
2018-10-17T06:38:24.356Z,10.15
2018-10-17T06:39:24.581Z,10.10
2018-10-17T06:40:24.808Z,10.12
2018-10-17T06:41:25.036Z,10.22
2018-10-17T06:42:25.260Z,10.30
2018-10-17T06:43:25.551Z,10.25
2018-10-17T06:44:25.714Z,10.16
2018-10-17T06:45:25.943Z,10.19
2018-10-17T06:46:26.168Z,10.17
2018-10-17T06:47:26.393Z,10.23
2018-10-17T06:48:26.620Z,10.13
2018-10-17T06:49:26.846Z,10.22
2018-10-17T06:50:27.073Z,10.17
2018-10-17T06:51:27.299Z,10.16
2018-10-17T06:52:27.523Z,10.16
2018-10-17T06:53:27.752Z,10.09
2018-10-17T06:54:28.024Z,10.09
2018-10-17T06:55:28.208Z,10.25
2018-10-17T06:56:28.434Z,10.16
2018-10-17T06:57:28.659Z,10.16
2018-10-17T06:58:28.887Z,10.16
2018-10-17T06:59:29.112Z,10.16
2018-10-17T07:00:29.341Z,10.17
2018-10-17T07:01:29.569Z,10.05
2018-10-17T07:02:29.794Z,10.10
2018-10-17T07:03:30.023Z,10.22
2018-10-17T07:04:30.247Z,10.19
2018-10-17T07:05:30.480Z,10.22
2018-10-17T07:06:30.703Z,10.28
2018-10-17T07:07:30.932Z,10.35
2018-10-17T07:08:31.245Z,10.31
2018-10-17T07:09:31.383Z,10.40
2018-10-17T07:10:31.608Z,10.41
2018-10-17T07:11:31.834Z,10.44
2018-10-17T07:12:32.059Z,10.54
2018-10-17T07:13:32.287Z,10.44
2018-10-17T07:14:32.511Z,10.44
2018-10-17T07:15:32.879Z,10.56
2018-10-17T07:16:32.969Z,10.56
2018-10-17T07:17:33.201Z,10.63
2018-10-17T07:18:33.423Z,10.56
2018-10-17T07:19:33.649Z,10.48
2018-10-17T07:20:33.888Z,10.40
2018-10-17T07:21:34.099Z,10.53
2018-10-17T07:22:34.326Z,10.57
2018-10-17T07:23:34.551Z,10.59
2018-10-17T07:24:34.776Z,10.76
2018-10-17T07:25:35.004Z,10.75
2018-10-17T07:26:35.233Z,10.76
2018-10-17T07:27:35.459Z,11.04
2018-10-17T07:28:35.772Z,11.05
2018-10-17T07:29:36.024Z,11.26
2018-10-17T07:30:36.139Z,11.35
2018-10-17T07:31:36.367Z,11.37
2018-10-17T07:32:36.592Z,11.25
2018-10-17T07:33:36.820Z,11.36
2018-10-17T07:34:37.047Z,11.32
2018-10-17T07:35:37.301Z,11.33
2018-10-17T07:36:37.499Z,11.40
2018-10-17T07:37:37.727Z,11.37
2018-10-17T07:38:37.957Z,11.32
2018-10-17T07:39:38.178Z,11.17
2018-10-17T07:40:38.406Z,11.37
2018-10-17T07:41:38.633Z,11.40
2018-10-17T07:42:38.865Z,11.33
2018-10-17T07:43:39.090Z,11.41
2018-10-17T07:44:39.316Z,11.41
2018-10-17T07:45:39.590Z,11.63
2018-10-17T07:46:39.774Z,11.47
2018-10-17T07:47:39.999Z,11.52
2018-10-17T07:48:40.226Z,11.54
2018-10-17T07:49:40.455Z,11.69
2018-10-17T07:50:40.682Z,11.81
2018-10-17T07:51:40.909Z,11.77
2018-10-17T07:52:41.137Z,11.62
2018-10-17T07:53:41.368Z,11.72
2018-10-17T07:54:41.589Z,11.78
2018-10-17T07:55:41.816Z,11.90
2018-10-17T07:56:42.047Z,11.83
2018-10-17T07:57:42.273Z,11.81
2018-10-17T07:58:42.500Z,11.88
2018-10-17T07:59:42.776Z,11.90
2018-10-17T08:00:42.949Z,11.94
2018-10-17T08:01:43.180Z,12.12
2018-10-17T08:02:43.411Z,12.21
2018-10-17T08:03:43.633Z,12.27
2018-10-17T08:04:43.858Z,12.37
2018-10-17T08:05:44.089Z,12.21
2018-10-17T08:06:44.362Z,12.39
2018-10-17T08:07:44.546Z,12.57
2018-10-17T08:08:44.775Z,12.64
2018-10-17T08:09:45.000Z,12.45
2018-10-17T08:10:45.227Z,12.65
2018-10-17T08:11:45.457Z,12.73
2018-10-17T08:12:45.687Z,12.83
2018-10-17T08:13:45.915Z,12.87
2018-10-17T08:14:46.140Z,12.68
2018-10-17T08:15:46.393Z,12.57
2018-10-17T08:16:46.587Z,12.72
2018-10-17T08:17:46.817Z,12.75
2018-10-17T08:18:47.047Z,12.65
2018-10-17T08:19:47.275Z,12.91
2018-10-17T08:20:47.500Z,13.04
2018-10-17T08:21:47.726Z,13.04
2018-10-17T08:22:47.959Z,12.97
2018-10-17T08:23:48.187Z,12.85
2018-10-17T08:24:48.415Z,13.11
2018-10-17T08:25:48.639Z,13.11
2018-10-17T08:26:48.866Z,13.03
2018-10-17T08:27:49.093Z,12.91
2018-10-17T08:28:49.320Z,12.75
2018-10-17T08:29:49.549Z,12.90
2018-10-17T08:30:49.780Z,13.08
2018-10-17T08:31:50.007Z,13.25
2018-10-17T08:32:50.234Z,13.08
2018-10-17T08:33:50.465Z,12.86
2018-10-17T08:34:50.702Z,13.04
2018-10-17T08:35:51.137Z,13.13
2018-10-17T08:36:51.406Z,13.38
2018-10-17T08:37:51.831Z,13.56
2018-10-17T08:38:51.606Z,13.46
2018-10-17T08:39:51.835Z,13.03
2018-10-17T08:40:52.073Z,13.11
2018-10-17T08:41:52.296Z,13.16
2018-10-17T08:42:52.523Z,13.20
2018-10-17T08:43:52.770Z,13.18
2018-10-17T08:44:53.030Z,13.37
2018-10-17T08:45:53.207Z,13.52
2018-10-17T08:46:53.435Z,13.54
2018-10-17T08:47:53.664Z,13.46
2018-10-17T08:48:53.892Z,13.42
2018-10-17T08:49:54.192Z,13.44
2018-10-17T08:50:54.384Z,13.60
2018-10-17T08:51:54.578Z,13.86
2018-10-17T08:52:54.805Z,14.04
2018-10-17T08:53:55.035Z,14.22
2018-10-17T08:54:55.260Z,14.40
2018-10-17T08:55:55.504Z,14.44
2018-10-17T08:56:55.715Z,14.47
2018-10-17T08:57:56.033Z,14.51
2018-10-17T08:58:56.175Z,14.62
2018-10-17T08:59:56.402Z,14.65
2018-10-17T09:00:56.631Z,14.68
2018-10-17T09:01:56.866Z,14.78
2018-10-17T09:02:57.088Z,14.72
2018-10-17T09:03:57.316Z,14.79
2018-10-17T09:04:57.546Z,14.81
2018-10-17T09:05:57.774Z,14.78
2018-10-17T09:06:57.999Z,14.79
2018-10-17T09:07:58.347Z,14.92
2018-10-17T09:08:58.456Z,14.94
2018-10-17T09:09:58.685Z,15.00
2018-10-17T09:10:58.912Z,15.03
2018-10-17T09:11:59.158Z,15.10
2018-10-17T09:12:59.378Z,15.11
2018-10-17T09:13:59.671Z,15.15
2018-10-17T09:14:59.822Z,15.18
2018-10-17T09:16:00.106Z,15.19
2018-10-17T09:17:00.297Z,15.24
2018-10-17T09:18:00.516Z,15.22
2018-10-17T09:19:00.735Z,15.18
2018-10-17T09:20:01.187Z,15.24
2018-10-17T09:21:01.623Z,15.33
2018-10-17T09:22:01.798Z,15.37
2018-10-17T09:23:01.649Z,15.36
2018-10-17T09:24:01.930Z,15.31
2018-10-17T09:25:02.187Z,15.24
2018-10-17T09:26:02.342Z,15.27
2018-10-17T09:27:02.568Z,15.35
2018-10-17T09:28:02.828Z,15.54
2018-10-17T09:29:03.025Z,15.49
2018-10-17T09:30:03.275Z,15.49
2018-10-17T09:31:03.483Z,15.43
2018-10-17T09:32:03.713Z,15.47
2018-10-17T09:33:03.940Z,15.61
2018-10-17T09:34:04.190Z,15.62
2018-10-17T09:35:04.404Z,15.65
2018-10-17T09:36:04.654Z,15.59
2018-10-17T09:37:04.856Z,15.64
2018-10-17T09:38:05.084Z,15.61
2018-10-17T09:39:05.312Z,15.58
2018-10-17T09:40:05.575Z,15.31
2018-10-17T09:41:05.771Z,15.29
2018-10-17T09:42:06.040Z,15.18
2018-10-17T09:43:06.254Z,15.24
2018-10-17T09:44:06.520Z,15.39
2018-10-17T09:45:06.687Z,15.55
2018-10-17T09:46:06.991Z,15.65
2018-10-17T09:47:07.145Z,15.61
2018-10-17T09:48:07.434Z,15.62
2018-10-17T09:49:07.589Z,15.79
2018-10-17T09:50:07.816Z,15.80
2018-10-17T09:51:08.073Z,15.90
2018-10-17T09:52:08.307Z,15.91
2018-10-17T09:53:08.588Z,15.92
2018-10-17T09:54:08.798Z,15.83
2018-10-17T09:55:08.988Z,15.98
2018-10-17T09:56:09.230Z,16.02
2018-10-17T09:57:09.460Z,16.02
2018-10-17T09:58:09.748Z,16.13
2018-10-17T09:59:09.924Z,16.10
2018-10-17T10:00:10.208Z,16.09
2018-10-17T10:01:10.383Z,16.13
2018-10-17T10:02:10.668Z,16.09
2018-10-17T10:03:10.840Z,16.17
2018-10-17T10:04:11.187Z,16.16
2018-10-17T10:05:11.336Z,16.13
2018-10-17T10:06:11.588Z,16.23
2018-10-17T10:07:11.771Z,16.12
2018-10-17T10:08:12.005Z,16.21
2018-10-17T10:09:12.229Z,16.35
2018-10-17T10:10:12.535Z,16.38
2018-10-17T10:11:12.688Z,16.39
2018-10-17T10:12:13.012Z,16.38
2018-10-17T10:13:13.142Z,16.38
2018-10-17T10:14:13.369Z,16.38
2018-10-17T10:15:13.601Z,16.47
2018-10-17T10:16:13.943Z,16.33
2018-10-17T10:17:14.161Z,16.58
2018-10-17T10:18:14.289Z,16.58
2018-10-17T10:19:14.519Z,16.64
2018-10-17T10:20:14.745Z,16.47
2018-10-17T10:21:14.978Z,16.65
2018-10-17T10:22:15.310Z,16.56
2018-10-17T10:23:15.518Z,16.71
2018-10-17T10:24:15.742Z,16.81
2018-10-17T10:25:15.939Z,16.74
2018-10-17T10:26:16.123Z,16.81
2018-10-17T10:27:16.367Z,16.79
2018-10-17T10:28:16.685Z,16.76
2018-10-17T10:29:16.832Z,16.87
2018-10-17T10:30:17.102Z,16.86
2018-10-17T10:31:17.288Z,16.87
2018-10-17T10:32:17.519Z,16.87
2018-10-17T10:33:17.749Z,16.99
2018-10-17T10:34:18.040Z,17.06
2018-10-17T10:35:18.209Z,16.96
2018-10-17T10:36:18.522Z,16.93
2018-10-17T10:37:18.666Z,17.02
2018-10-17T10:38:18.894Z,17.08
2018-10-17T10:39:19.125Z,17.20
2018-10-17T10:40:19.362Z,17.27
2018-10-17T10:41:19.583Z,17.31
2018-10-17T10:42:19.818Z,17.46
2018-10-17T10:43:20.044Z,17.46
2018-10-17T10:44:20.359Z,17.36
2018-10-17T10:45:20.642Z,17.49
2018-10-17T10:46:20.736Z,17.54
2018-10-17T10:47:20.963Z,17.65
2018-10-17T10:48:21.193Z,17.71
2018-10-17T10:49:21.422Z,17.78
2018-10-17T10:50:21.657Z,17.74
2018-10-17T10:51:21.997Z,17.85
2018-10-17T10:52:22.112Z,17.85
2018-10-17T10:53:22.347Z,17.79
2018-10-17T10:54:22.574Z,17.92
2018-10-17T10:55:22.805Z,18.03
2018-10-17T10:56:23.036Z,18.08
2018-10-17T10:57:23.273Z,18.11
2018-10-17T10:58:23.639Z,18.22
2018-10-17T10:59:23.838Z,18.10
2018-10-17T11:00:23.957Z,18.11
2018-10-17T11:01:24.188Z,18.11
2018-10-17T11:02:24.420Z,18.25
2018-10-17T11:03:24.648Z,18.19
2018-10-17T11:04:24.910Z,18.40
2018-10-17T11:05:25.204Z,18.45
2018-10-17T11:06:25.342Z,18.44
2018-10-17T11:07:25.575Z,18.45
2018-10-17T11:08:25.806Z,18.59
2018-10-17T11:09:26.036Z,18.55
2018-10-17T11:10:26.266Z,18.47
2018-10-17T11:11:26.495Z,18.55
2018-10-17T11:12:26.729Z,18.58
2018-10-17T11:13:26.961Z,18.50
2018-10-17T11:14:27.309Z,18.63
2018-10-17T11:15:27.423Z,18.68
2018-10-17T11:16:27.652Z,18.74
2018-10-17T11:17:27.889Z,18.90
2018-10-17T11:18:28.116Z,18.88
2018-10-17T11:19:28.352Z,18.86
2018-10-17T11:20:28.578Z,18.88
2018-10-17T11:21:28.807Z,18.95
2018-10-17T11:22:29.041Z,18.96
2018-10-17T11:23:29.270Z,18.98
2018-10-17T11:24:29.499Z,19.12
2018-10-17T11:25:29.730Z,19.16
2018-10-17T11:26:29.961Z,19.31
2018-10-17T11:27:30.191Z,19.36
2018-10-17T11:28:30.422Z,19.40
2018-10-17T11:29:30.654Z,19.41
2018-10-17T11:30:30.888Z,19.47
2018-10-17T11:31:31.155Z,19.48
2018-10-17T11:32:31.347Z,19.55
2018-10-17T11:33:31.580Z,19.55
2018-10-17T11:34:31.815Z,19.71
2018-10-17T11:35:32.042Z,19.76
2018-10-17T11:36:32.278Z,19.86
2018-10-17T11:37:32.583Z,19.77
2018-10-17T11:38:32.737Z,19.67
2018-10-17T11:39:32.973Z,19.77
2018-10-17T11:40:33.267Z,19.88
2018-10-17T11:41:33.526Z,19.89
2018-10-17T11:42:33.664Z,19.94
2018-10-17T11:43:33.892Z,19.99
2018-10-17T11:44:34.125Z,20.00
2018-10-17T11:45:34.353Z,20.06
2018-10-17T11:46:34.585Z,20.09
2018-10-17T11:47:34.819Z,20.22
2018-10-17T11:48:35.050Z,20.25
2018-10-17T11:49:35.281Z,20.21
2018-10-17T11:50:35.568Z,20.29
2018-10-17T11:51:35.746Z,20.36
2018-10-17T11:52:35.978Z,20.34
2018-10-17T11:53:36.209Z,20.36
2018-10-17T11:54:36.446Z,20.47
2018-10-17T11:55:36.689Z,20.43
2018-10-17T11:56:36.912Z,20.59
2018-10-17T11:57:37.128Z,20.58
2018-10-17T11:58:37.360Z,20.63
2018-10-17T11:59:37.597Z,20.72
2018-10-17T12:00:37.828Z,20.78
2018-10-17T12:01:38.056Z,20.82
2018-10-17T12:02:38.287Z,20.85
2018-10-17T12:03:38.563Z,20.92
2018-10-17T12:04:38.867Z,21.07
2018-10-17T12:05:39.169Z,21.12
2018-10-17T12:06:39.306Z,21.14
2018-10-17T12:07:39.452Z,21.29
2018-10-17T12:08:39.680Z,21.30
2018-10-17T12:09:39.911Z,21.29
2018-10-17T12:10:40.147Z,21.43
2018-10-17T12:11:40.383Z,21.42
2018-10-17T12:12:40.607Z,21.36
2018-10-17T12:13:40.839Z,21.51
2018-10-17T12:14:41.072Z,21.50
2018-10-17T12:15:41.306Z,21.42
2018-10-17T12:16:41.537Z,21.51
2018-10-17T12:17:41.769Z,21.48
2018-10-17T12:18:41.999Z,21.46
2018-10-17T12:19:42.263Z,21.45
2018-10-17T12:20:42.465Z,21.51
2018-10-17T12:21:42.697Z,21.52
2018-10-17T12:22:42.928Z,21.48
2018-10-17T12:23:43.164Z,21.48
2018-10-17T12:24:43.395Z,21.54
2018-10-17T12:25:43.629Z,21.55
2018-10-17T12:26:43.862Z,21.66
2018-10-17T12:27:44.117Z,21.54
2018-10-17T12:28:44.378Z,21.73
2018-10-17T12:29:44.559Z,21.83
2018-10-17T12:30:44.791Z,21.75
2018-10-17T12:31:45.024Z,21.85
2018-10-17T12:32:45.256Z,21.85
2018-10-17T12:33:45.486Z,21.76
2018-10-17T12:34:45.722Z,21.82
2018-10-17T12:35:45.955Z,21.88
2018-10-17T12:36:46.190Z,21.93
2018-10-17T12:37:46.451Z,21.98
2018-10-17T12:38:46.711Z,21.95
2018-10-17T12:39:46.964Z,22.13
2018-10-17T12:40:47.266Z,21.99
2018-10-17T12:41:47.351Z,22.06
2018-10-17T12:42:47.585Z,22.07
2018-10-17T12:43:47.820Z,22.06
2018-10-17T12:44:48.066Z,22.13
2018-10-17T12:45:48.334Z,22.06
2018-10-17T12:46:48.510Z,22.10
2018-10-17T12:47:48.744Z,22.15
2018-10-17T12:48:48.977Z,22.18
2018-10-17T12:49:49.302Z,22.10
2018-10-17T12:50:49.445Z,22.07
2018-10-17T12:51:49.724Z,22.02
2018-10-17T12:52:50.107Z,22.14
2018-10-17T12:53:50.146Z,22.06
2018-10-17T12:54:50.375Z,22.15
2018-10-17T12:55:50.616Z,22.07
2018-10-17T12:56:50.849Z,22.11
2018-10-17T12:57:51.083Z,22.13